sensor_id;sensor_type;location;lat;lon;timestamp;P1;durP1;ratioP1;P2;durP2;ratioP2
27670;SDS011;15077;49.704;9.908;2023-04-03T00:01:31;0.88;;;0.68;;
27670;SDS011;15077;49.704;9.908;2023-04-03T00:03:58;1.17;;;0.85;;
27670;SDS011;15077;49.704;9.908;2023-04-03T00:06:24;0.93;;;0.60;;
27670;SDS011;15077;49.704;9.908;2023-04-03T00:08:51;1.33;;;1.00;;
27670;SDS011;15077;49.704;9.908;2023-04-03T00:11:20;1.60;;;0.90;;
27670;SDS011;15077;49.704;9.908;2023-04-03T00:13:46;2.60;;;0.90;;
27670;SDS011;15077;49.704;9.908;2023-04-03T00:16:12;1.33;;;0.95;;
27670;SDS011;15077;49.704;9.908;2023-04-03T00:18:38;1.35;;;0.60;;
27670;SDS011;15077;49.704;9.908;2023-04-03T00:21:05;2.78;;;1.10;;
27670;SDS011;15077;49.704;9.908;2023-04-03T00:23:32;2.20;;;0.90;;
27670;SDS011;15077;49.704;9.908;2023-04-03T00:25:59;1.50;;;0.90;;
27670;SDS011;15077;49.704;9.908;2023-04-03T00:28:25;1.05;;;0.90;;
27670;SDS011;15077;49.704;9.908;2023-04-03T00:30:51;1.42;;;1.05;;
27670;SDS011;15077;49.704;9.908;2023-04-03T00:33:17;1.40;;;0.90;;
27670;SDS011;15077;49.704;9.908;2023-04-03T00:35:47;1.40;;;0.90;;
27670;SDS011;15077;49.704;9.908;2023-04-03T00:38:16;1.20;;;0.95;;
27670;SDS011;15077;49.704;9.908;2023-04-03T00:40:45;1.08;;;0.70;;
27670;SDS011;15077;49.704;9.908;2023-04-03T00:43:18;0.98;;;0.80;;
27670;SDS011;15077;49.704;9.908;2023-04-03T00:45:50;1.35;;;0.68;;
27670;SDS011;15077;49.704;9.908;2023-04-03T00:48:20;1.65;;;1.08;;
27670;SDS011;15077;49.704;9.908;2023-04-03T00:51:10;1.63;;;0.85;;
27670;SDS011;15077;49.704;9.908;2023-04-03T00:53:46;0.77;;;0.70;;
27670;SDS011;15077;49.704;9.908;2023-04-03T00:56:17;1.02;;;0.80;;
27670;SDS011;15077;49.704;9.908;2023-04-03T00:58:50;1.90;;;1.10;;
27670;SDS011;15077;49.704;9.908;2023-04-03T01:01:22;1.20;;;0.93;;
27670;SDS011;15077;49.704;9.908;2023-04-03T01:03:53;3.10;;;0.98;;
27670;SDS011;15077;49.704;9.908;2023-04-03T01:06:21;1.50;;;1.02;;
27670;SDS011;15077;49.704;9.908;2023-04-03T01:08:56;1.33;;;0.90;;
27670;SDS011;15077;49.704;9.908;2023-04-03T01:11:22;2.10;;;0.73;;
27670;SDS011;15077;49.704;9.908;2023-04-03T01:13:48;1.23;;;0.90;;
27670;SDS011;15077;49.704;9.908;2023-04-03T01:16:15;1.52;;;1.17;;
27670;SDS011;15077;49.704;9.908;2023-04-03T01:18:40;1.83;;;1.08;;
27670;SDS011;15077;49.704;9.908;2023-04-03T01:26:56;2.80;;;1.00;;
27670;SDS011;15077;49.704;9.908;2023-04-03T01:29:25;1.55;;;0.70;;
27670;SDS011;15077;49.704;9.908;2023-04-03T01:31:55;1.55;;;1.20;;
27670;SDS011;15077;49.704;9.908;2023-04-03T01:34:24;1.08;;;0.75;;
27670;SDS011;15077;49.704;9.908;2023-04-03T01:36:51;0.93;;;0.80;;
27670;SDS011;15077;49.704;9.908;2023-04-03T01:39:17;1.30;;;0.82;;
27670;SDS011;15077;49.704;9.908;2023-04-03T01:41:44;1.05;;;0.75;;
27670;SDS011;15077;49.704;9.908;2023-04-03T01:44:10;1.30;;;1.00;;
27670;SDS011;15077;49.704;9.908;2023-04-03T01:46:36;1.52;;;1.10;;
27670;SDS011;15077;49.704;9.908;2023-04-03T01:49:03;1.60;;;0.90;;
27670;SDS011;15077;49.704;9.908;2023-04-03T01:51:29;1.42;;;0.88;;
27670;SDS011;15077;49.704;9.908;2023-04-03T01:53:56;1.90;;;0.80;;
27670;SDS011;15077;49.704;9.908;2023-04-03T01:56:22;1.77;;;1.38;;
27670;SDS011;15077;49.704;9.908;2023-04-03T01:58:48;1.77;;;1.08;;
27670;SDS011;15077;49.704;9.908;2023-04-03T02:01:14;2.97;;;1.23;;
27670;SDS011;15077;49.704;9.908;2023-04-03T02:03:40;1.00;;;0.80;;
27670;SDS011;15077;49.704;9.908;2023-04-03T02:06:06;1.63;;;1.02;;
27670;SDS011;15077;49.704;9.908;2023-04-03T02:08:31;1.98;;;0.77;;
27670;SDS011;15077;49.704;9.908;2023-04-03T02:10:57;1.67;;;1.02;;
27670;SDS011;15077;49.704;9.908;2023-04-03T02:13:23;3.08;;;0.90;;
27670;SDS011;15077;49.704;9.908;2023-04-03T02:15:49;1.75;;;1.10;;
27670;SDS011;15077;49.704;9.908;2023-04-03T02:18:14;1.48;;;1.00;;
27670;SDS011;15077;49.704;9.908;2023-04-03T02:20:41;1.70;;;0.98;;
27670;SDS011;15077;49.704;9.908;2023-04-03T02:23:07;1.80;;;1.08;;
27670;SDS011;15077;49.704;9.908;2023-04-03T02:25:34;1.88;;;1.25;;
27670;SDS011;15077;49.704;9.908;2023-04-03T02:27:59;3.22;;;1.73;;
27670;SDS011;15077;49.704;9.908;2023-04-03T02:30:25;2.50;;;1.58;;
27670;SDS011;15077;49.704;9.908;2023-04-03T02:32:51;1.60;;;1.20;;
27670;SDS011;15077;49.704;9.908;2023-04-03T02:35:17;2.35;;;1.13;;
27670;SDS011;15077;49.704;9.908;2023-04-03T02:37:43;1.95;;;1.10;;
27670;SDS011;15077;49.704;9.908;2023-04-03T02:40:09;3.60;;;1.83;;
27670;SDS011;15077;49.704;9.908;2023-04-03T02:42:36;4.75;;;1.42;;
27670;SDS011;15077;49.704;9.908;2023-04-03T02:45:02;3.42;;;1.42;;
27670;SDS011;15077;49.704;9.908;2023-04-03T02:47:31;1.30;;;1.08;;
27670;SDS011;15077;49.704;9.908;2023-04-03T02:49:57;1.77;;;1.10;;
27670;SDS011;15077;49.704;9.908;2023-04-03T02:52:25;1.58;;;1.17;;
27670;SDS011;15077;49.704;9.908;2023-04-03T02:54:51;1.25;;;0.85;;
27670;SDS011;15077;49.704;9.908;2023-04-03T02:57:17;0.90;;;0.73;;
27670;SDS011;15077;49.704;9.908;2023-04-03T02:59:44;2.40;;;1.00;;
27670;SDS011;15077;49.704;9.908;2023-04-03T03:02:10;1.50;;;0.98;;
27670;SDS011;15077;49.704;9.908;2023-04-03T03:04:36;1.80;;;1.10;;
27670;SDS011;15077;49.704;9.908;2023-04-03T03:07:02;3.00;;;1.63;;
27670;SDS011;15077;49.704;9.908;2023-04-03T03:09:29;1.83;;;1.20;;
27670;SDS011;15077;49.704;9.908;2023-04-03T03:11:55;1.75;;;0.98;;
27670;SDS011;15077;49.704;9.908;2023-04-03T03:14:22;1.38;;;1.27;;
27670;SDS011;15077;49.704;9.908;2023-04-03T03:16:48;2.55;;;1.05;;
27670;SDS011;15077;49.704;9.908;2023-04-03T03:19:14;0.90;;;0.80;;
27670;SDS011;15077;49.704;9.908;2023-04-03T03:21:40;1.60;;;0.95;;
27670;SDS011;15077;49.704;9.908;2023-04-03T03:24:06;1.40;;;0.80;;
27670;SDS011;15077;49.704;9.908;2023-04-03T03:26:37;2.28;;;1.08;;
27670;SDS011;15077;49.704;9.908;2023-04-03T03:29:03;3.08;;;1.20;;
27670;SDS011;15077;49.704;9.908;2023-04-03T03:31:29;1.67;;;0.93;;
27670;SDS011;15077;49.704;9.908;2023-04-03T03:33:55;1.00;;;0.90;;
27670;SDS011;15077;49.704;9.908;2023-04-03T03:36:21;2.00;;;1.17;;
27670;SDS011;15077;49.704;9.908;2023-04-03T03:38:47;2.05;;;1.20;;
27670;SDS011;15077;49.704;9.908;2023-04-03T03:41:13;4.25;;;1.60;;
27670;SDS011;15077;49.704;9.908;2023-04-03T03:43:39;3.22;;;1.27;;
27670;SDS011;15077;49.704;9.908;2023-04-03T03:46:04;1.48;;;1.10;;
27670;SDS011;15077;49.704;9.908;2023-04-03T03:48:30;1.70;;;1.20;;
27670;SDS011;15077;49.704;9.908;2023-04-03T03:50:56;1.90;;;1.40;;
27670;SDS011;15077;49.704;9.908;2023-04-03T03:53:22;2.40;;;1.75;;
27670;SDS011;15077;49.704;9.908;2023-04-03T03:55:47;1.65;;;1.45;;
27670;SDS011;15077;49.704;9.908;2023-04-03T03:58:13;3.78;;;2.20;;
27670;SDS011;15077;49.704;9.908;2023-04-03T04:00:39;1.88;;;1.60;;
27670;SDS011;15077;49.704;9.908;2023-04-03T04:03:05;2.20;;;1.27;;
27670;SDS011;15077;49.704;9.908;2023-04-03T04:05:32;2.50;;;1.40;;
27670;SDS011;15077;49.704;9.908;2023-04-03T04:07:57;2.08;;;1.48;;
27670;SDS011;15077;49.704;9.908;2023-04-03T04:10:23;3.03;;;1.92;;
27670;SDS011;15077;49.704;9.908;2023-04-03T04:12:49;2.00;;;1.60;;
27670;SDS011;15077;49.704;9.908;2023-04-03T04:15:16;2.20;;;1.80;;
27670;SDS011;15077;49.704;9.908;2023-04-03T04:17:42;3.08;;;1.70;;
27670;SDS011;15077;49.704;9.908;2023-04-03T04:20:08;5.05;;;2.95;;
27670;SDS011;15077;49.704;9.908;2023-04-03T04:22:34;4.95;;;2.55;;
27670;SDS011;15077;49.704;9.908;2023-04-03T04:25:00;3.92;;;2.88;;
27670;SDS011;15077;49.704;9.908;2023-04-03T04:27:26;5.43;;;3.05;;
27670;SDS011;15077;49.704;9.908;2023-04-03T04:29:52;4.78;;;3.33;;
27670;SDS011;15077;49.704;9.908;2023-04-03T04:32:18;4.03;;;3.30;;
27670;SDS011;15077;49.704;9.908;2023-04-03T04:34:44;3.85;;;2.90;;
27670;SDS011;15077;49.704;9.908;2023-04-03T04:37:10;3.47;;;2.72;;
27670;SDS011;15077;49.704;9.908;2023-04-03T04:39:36;4.38;;;3.22;;
27670;SDS011;15077;49.704;9.908;2023-04-03T04:42:01;4.53;;;3.20;;
27670;SDS011;15077;49.704;9.908;2023-04-03T04:44:28;4.63;;;3.50;;
27670;SDS011;15077;49.704;9.908;2023-04-03T04:46:53;7.50;;;4.55;;
27670;SDS011;15077;49.704;9.908;2023-04-03T04:49:19;4.68;;;3.75;;
27670;SDS011;15077;49.704;9.908;2023-04-03T04:51:45;6.57;;;3.88;;
27670;SDS011;15077;49.704;9.908;2023-04-03T04:54:11;5.18;;;3.90;;
27670;SDS011;15077;49.704;9.908;2023-04-03T04:56:36;8.35;;;4.40;;
27670;SDS011;15077;49.704;9.908;2023-04-03T04:59:02;5.22;;;3.50;;
27670;SDS011;15077;49.704;9.908;2023-04-03T05:01:28;5.18;;;3.13;;
27670;SDS011;15077;49.704;9.908;2023-04-03T05:03:53;6.40;;;4.20;;
27670;SDS011;15077;49.704;9.908;2023-04-03T05:06:19;6.88;;;3.83;;
27670;SDS011;15077;49.704;9.908;2023-04-03T05:08:45;6.55;;;4.38;;
27670;SDS011;15077;49.704;9.908;2023-04-03T05:11:11;6.13;;;3.78;;
27670;SDS011;15077;49.704;9.908;2023-04-03T05:13:37;5.32;;;4.43;;
27670;SDS011;15077;49.704;9.908;2023-04-03T05:16:02;4.57;;;3.83;;
27670;SDS011;15077;49.704;9.908;2023-04-03T05:18:29;5.05;;;4.07;;
27670;SDS011;15077;49.704;9.908;2023-04-03T05:20:54;5.40;;;4.10;;
27670;SDS011;15077;49.704;9.908;2023-04-03T05:23:20;8.02;;;4.55;;
27670;SDS011;15077;49.704;9.908;2023-04-03T05:25:46;7.10;;;4.82;;
27670;SDS011;15077;49.704;9.908;2023-04-03T05:28:13;5.25;;;4.25;;
27670;SDS011;15077;49.704;9.908;2023-04-03T05:30:39;5.57;;;4.45;;
27670;SDS011;15077;49.704;9.908;2023-04-03T05:33:05;6.10;;;4.45;;
27670;SDS011;15077;49.704;9.908;2023-04-03T05:35:31;6.90;;;4.10;;
27670;SDS011;15077;49.704;9.908;2023-04-03T05:37:57;6.25;;;4.10;;
27670;SDS011;15077;49.704;9.908;2023-04-03T05:40:23;6.45;;;3.72;;
27670;SDS011;15077;49.704;9.908;2023-04-03T05:42:48;6.65;;;4.82;;
27670;SDS011;15077;49.704;9.908;2023-04-03T05:45:14;6.65;;;3.92;;
27670;SDS011;15077;49.704;9.908;2023-04-03T05:47:40;6.47;;;3.47;;
27670;SDS011;15077;49.704;9.908;2023-04-03T05:50:06;5.25;;;3.85;;
27670;SDS011;15077;49.704;9.908;2023-04-03T05:52:36;7.80;;;4.55;;
27670;SDS011;15077;49.704;9.908;2023-04-03T05:55:06;5.32;;;3.72;;
27670;SDS011;15077;49.704;9.908;2023-04-03T05:57:32;4.95;;;4.13;;
27670;SDS011;15077;49.704;9.908;2023-04-03T05:59:58;9.68;;;4.95;;
27670;SDS011;15077;49.704;9.908;2023-04-03T06:02:23;8.57;;;4.07;;
27670;SDS011;15077;49.704;9.908;2023-04-03T06:04:51;5.90;;;4.32;;
27670;SDS011;15077;49.704;9.908;2023-04-03T06:07:18;5.85;;;4.18;;
27670;SDS011;15077;49.704;9.908;2023-04-03T06:09:47;6.32;;;4.60;;
27670;SDS011;15077;49.704;9.908;2023-04-03T06:12:16;8.75;;;5.32;;
27670;SDS011;15077;49.704;9.908;2023-04-03T06:14:42;6.75;;;4.50;;
27670;SDS011;15077;49.704;9.908;2023-04-03T06:17:08;6.10;;;4.63;;
27670;SDS011;15077;49.704;9.908;2023-04-03T06:19:35;6.70;;;5.00;;
27670;SDS011;15077;49.704;9.908;2023-04-03T06:22:01;9.48;;;4.75;;
27670;SDS011;15077;49.704;9.908;2023-04-03T06:24:28;6.78;;;4.57;;
27670;SDS011;15077;49.704;9.908;2023-04-03T06:26:55;6.13;;;4.65;;
27670;SDS011;15077;49.704;9.908;2023-04-03T06:29:22;6.97;;;5.07;;
27670;SDS011;15077;49.704;9.908;2023-04-03T06:31:48;8.35;;;4.80;;
27670;SDS011;15077;49.704;9.908;2023-04-03T06:34:15;7.45;;;4.90;;
27670;SDS011;15077;49.704;9.908;2023-04-03T06:36:41;9.60;;;4.78;;
27670;SDS011;15077;49.704;9.908;2023-04-03T06:39:08;6.60;;;4.93;;
27670;SDS011;15077;49.704;9.908;2023-04-03T06:41:45;6.63;;;4.65;;
27670;SDS011;15077;49.704;9.908;2023-04-03T06:44:11;6.93;;;5.10;;
27670;SDS011;15077;49.704;9.908;2023-04-03T06:46:40;8.13;;;4.95;;
27670;SDS011;15077;49.704;9.908;2023-04-03T06:49:07;6.78;;;4.55;;
27670;SDS011;15077;49.704;9.908;2023-04-03T06:51:33;6.65;;;4.22;;
27670;SDS011;15077;49.704;9.908;2023-04-03T06:54:00;5.97;;;4.60;;
27670;SDS011;15077;49.704;9.908;2023-04-03T06:56:28;9.95;;;5.38;;
27670;SDS011;15077;49.704;9.908;2023-04-03T06:58:55;6.72;;;4.43;;
27670;SDS011;15077;49.704;9.908;2023-04-03T07:01:25;7.07;;;4.88;;
27670;SDS011;15077;49.704;9.908;2023-04-03T07:03:53;7.47;;;4.22;;
27670;SDS011;15077;49.704;9.908;2023-04-03T07:06:19;7.93;;;4.63;;
27670;SDS011;15077;49.704;9.908;2023-04-03T07:08:46;10.10;;;5.30;;
27670;SDS011;15077;49.704;9.908;2023-04-03T07:11:15;5.35;;;4.43;;
27670;SDS011;15077;49.704;9.908;2023-04-03T07:13:41;7.00;;;4.18;;
27670;SDS011;15077;49.704;9.908;2023-04-03T07:16:08;4.82;;;4.18;;
27670;SDS011;15077;49.704;9.908;2023-04-03T07:18:34;6.50;;;4.55;;
27670;SDS011;15077;49.704;9.908;2023-04-03T07:21:01;10.70;;;4.93;;
27670;SDS011;15077;49.704;9.908;2023-04-03T07:23:28;6.35;;;3.97;;
27670;SDS011;15077;49.704;9.908;2023-04-03T07:25:54;8.18;;;4.45;;
27670;SDS011;15077;49.704;9.908;2023-04-03T07:28:21;7.07;;;4.45;;
27670;SDS011;15077;49.704;9.908;2023-04-03T07:30:51;5.32;;;3.42;;
27670;SDS011;15077;49.704;9.908;2023-04-03T07:33:24;7.53;;;3.88;;
27670;SDS011;15077;49.704;9.908;2023-04-03T07:35:50;8.60;;;4.10;;
27670;SDS011;15077;49.704;9.908;2023-04-03T07:38:16;8.57;;;4.30;;
27670;SDS011;15077;49.704;9.908;2023-04-03T07:40:48;4.22;;;3.78;;
27670;SDS011;15077;49.704;9.908;2023-04-03T07:43:16;9.05;;;4.18;;
27670;SDS011;15077;49.704;9.908;2023-04-03T07:45:43;6.45;;;4.00;;
27670;SDS011;15077;49.704;9.908;2023-04-03T07:48:10;5.13;;;3.83;;
27670;SDS011;15077;49.704;9.908;2023-04-03T07:50:36;5.85;;;4.15;;
27670;SDS011;15077;49.704;9.908;2023-04-03T07:53:05;5.93;;;3.90;;
27670;SDS011;15077;49.704;9.908;2023-04-03T07:55:31;7.05;;;3.97;;
27670;SDS011;15077;49.704;9.908;2023-04-03T07:57:57;8.52;;;4.65;;
27670;SDS011;15077;49.704;9.908;2023-04-03T08:00:23;6.95;;;4.68;;
27670;SDS011;15077;49.704;9.908;2023-04-03T08:02:49;5.93;;;4.40;;
27670;SDS011;15077;49.704;9.908;2023-04-03T08:05:19;5.57;;;3.83;;
27670;SDS011;15077;49.704;9.908;2023-04-03T08:07:46;4.63;;;3.70;;
27670;SDS011;15077;49.704;9.908;2023-04-03T08:10:13;8.88;;;3.90;;
27670;SDS011;15077;49.704;9.908;2023-04-03T08:12:39;8.10;;;3.78;;
27670;SDS011;15077;49.704;9.908;2023-04-03T08:15:07;6.00;;;3.97;;
27670;SDS011;15077;49.704;9.908;2023-04-03T08:17:33;5.10;;;3.65;;
27670;SDS011;15077;49.704;9.908;2023-04-03T08:20:00;6.38;;;3.95;;
27670;SDS011;15077;49.704;9.908;2023-04-03T08:22:27;5.97;;;3.65;;
27670;SDS011;15077;49.704;9.908;2023-04-03T08:24:54;7.90;;;4.40;;
27670;SDS011;15077;49.704;9.908;2023-04-03T08:27:20;7.47;;;3.95;;
27670;SDS011;15077;49.704;9.908;2023-04-03T08:29:46;4.75;;;4.20;;
27670;SDS011;15077;49.704;9.908;2023-04-03T08:32:11;9.63;;;3.95;;
27670;SDS011;15077;49.704;9.908;2023-04-03T08:34:37;7.85;;;4.15;;
27670;SDS011;15077;49.704;9.908;2023-04-03T08:37:04;4.47;;;4.03;;
27670;SDS011;15077;49.704;9.908;2023-04-03T08:39:31;10.45;;;4.55;;
27670;SDS011;15077;49.704;9.908;2023-04-03T08:41:57;3.78;;;3.25;;
27670;SDS011;15077;49.704;9.908;2023-04-03T08:50:18;5.97;;;3.78;;
27670;SDS011;15077;49.704;9.908;2023-04-03T08:52:51;7.50;;;4.05;;
27670;SDS011;15077;49.704;9.908;2023-04-03T08:57:59;10.65;;;4.75;;
27670;SDS011;15077;49.704;9.908;2023-04-03T09:03:19;8.35;;;3.42;;
27670;SDS011;15077;49.704;9.908;2023-04-03T09:17:09;5.43;;;3.22;;
27670;SDS011;15077;49.704;9.908;2023-04-03T09:20:25;5.15;;;3.10;;
27670;SDS011;15077;49.704;9.908;2023-04-03T09:26:09;4.30;;;2.58;;
27670;SDS011;15077;49.704;9.908;2023-04-03T09:28:44;6.88;;;3.25;;
27670;SDS011;15077;49.704;9.908;2023-04-03T09:31:24;7.65;;;2.80;;
27670;SDS011;15077;49.704;9.908;2023-04-03T09:33:59;4.15;;;2.47;;
27670;SDS011;15077;49.704;9.908;2023-04-03T09:39:19;5.15;;;2.97;;
27670;SDS011;15077;49.704;9.908;2023-04-03T09:42:34;6.72;;;2.38;;
27670;SDS011;15077;49.704;9.908;2023-04-03T09:44:53;4.13;;;2.80;;
27670;SDS011;15077;49.704;9.908;2023-04-03T09:47:33;4.28;;;2.72;;
27670;SDS011;15077;49.704;9.908;2023-04-03T09:50:17;6.23;;;2.47;;
27670;SDS011;15077;49.704;9.908;2023-04-03T09:52:47;4.85;;;2.70;;
27670;SDS011;15077;49.704;9.908;2023-04-03T09:55:18;4.35;;;2.47;;
27670;SDS011;15077;49.704;9.908;2023-04-03T09:58:01;5.95;;;2.83;;
27670;SDS011;15077;49.704;9.908;2023-04-03T10:00:36;7.15;;;3.13;;
27670;SDS011;15077;49.704;9.908;2023-04-03T10:03:05;5.88;;;2.97;;
27670;SDS011;15077;49.704;9.908;2023-04-03T10:06:02;3.72;;;2.92;;
27670;SDS011;15077;49.704;9.908;2023-04-03T10:08:30;4.45;;;3.20;;
27670;SDS011;15077;49.704;9.908;2023-04-03T10:11:06;8.57;;;3.13;;
27670;SDS011;15077;49.704;9.908;2023-04-03T10:13:58;4.88;;;2.70;;
27670;SDS011;15077;49.704;9.908;2023-04-03T10:19:52;4.63;;;2.65;;
27670;SDS011;15077;49.704;9.908;2023-04-03T10:22:26;7.20;;;2.80;;
27670;SDS011;15077;49.704;9.908;2023-04-03T10:25:28;5.60;;;3.22;;
27670;SDS011;15077;49.704;9.908;2023-04-03T10:31:10;6.05;;;2.95;;
27670;SDS011;15077;49.704;9.908;2023-04-03T10:42:49;6.93;;;2.55;;
27670;SDS011;15077;49.704;9.908;2023-04-03T10:48:26;9.52;;;2.40;;
27670;SDS011;15077;49.704;9.908;2023-04-03T10:51:06;3.58;;;2.53;;
27670;SDS011;15077;49.704;9.908;2023-04-03T11:02:33;3.42;;;2.60;;
27670;SDS011;15077;49.704;9.908;2023-04-03T11:08:21;3.85;;;2.20;;
27670;SDS011;15077;49.704;9.908;2023-04-03T11:11:29;4.22;;;2.10;;
27670;SDS011;15077;49.704;9.908;2023-04-03T11:14:05;3.95;;;2.67;;
27670;SDS011;15077;49.704;9.908;2023-04-03T11:16:45;4.90;;;2.38;;
27670;SDS011;15077;49.704;9.908;2023-04-03T11:22:41;4.82;;;2.40;;
27670;SDS011;15077;49.704;9.908;2023-04-03T11:25:24;2.92;;;2.38;;
27670;SDS011;15077;49.704;9.908;2023-04-03T11:30:39;5.93;;;2.60;;
27670;SDS011;15077;49.704;9.908;2023-04-03T11:35:53;3.58;;;2.45;;
27670;SDS011;15077;49.704;9.908;2023-04-03T11:38:27;5.10;;;2.20;;
27670;SDS011;15077;49.704;9.908;2023-04-03T11:41:01;5.13;;;2.28;;
27670;SDS011;15077;49.704;9.908;2023-04-03T11:43:30;5.32;;;2.20;;
27670;SDS011;15077;49.704;9.908;2023-04-03T11:45:59;7.75;;;3.40;;
27670;SDS011;15077;49.704;9.908;2023-04-03T11:53:47;2.35;;;1.95;;
27670;SDS011;15077;49.704;9.908;2023-04-03T11:56:34;5.45;;;2.65;;
27670;SDS011;15077;49.704;9.908;2023-04-03T12:04:13;3.50;;;1.88;;
27670;SDS011;15077;49.704;9.908;2023-04-03T12:06:47;4.82;;;2.05;;
27670;SDS011;15077;49.704;9.908;2023-04-03T12:09:31;4.13;;;2.08;;
27670;SDS011;15077;49.704;9.908;2023-04-03T12:17:51;4.03;;;1.90;;
27670;SDS011;15077;49.704;9.908;2023-04-03T12:23:33;2.83;;;1.75;;
27670;SDS011;15077;49.704;9.908;2023-04-03T12:26:22;3.90;;;1.48;;
27670;SDS011;15077;49.704;9.908;2023-04-03T12:28:53;4.43;;;2.23;;
27670;SDS011;15077;49.704;9.908;2023-04-03T12:31:20;3.92;;;1.75;;
27670;SDS011;15077;49.704;9.908;2023-04-03T12:42:02;4.13;;;1.60;;
27670;SDS011;15077;49.704;9.908;2023-04-03T12:45:05;3.35;;;1.83;;
27670;SDS011;15077;49.704;9.908;2023-04-03T12:47:44;2.90;;;1.63;;
27670;SDS011;15077;49.704;9.908;2023-04-03T12:50:21;3.50;;;2.03;;
27670;SDS011;15077;49.704;9.908;2023-04-03T12:53:05;3.22;;;1.90;;
27670;SDS011;15077;49.704;9.908;2023-04-03T12:55:38;3.85;;;2.15;;
27670;SDS011;15077;49.704;9.908;2023-04-03T12:58:14;3.60;;;1.90;;
27670;SDS011;15077;49.704;9.908;2023-04-03T13:01:11;3.03;;;1.63;;
27670;SDS011;15077;49.704;9.908;2023-04-03T13:03:44;3.05;;;1.55;;
27670;SDS011;15077;49.704;9.908;2023-04-03T13:06:14;2.80;;;1.45;;
27670;SDS011;15077;49.704;9.908;2023-04-03T13:08:50;2.33;;;1.65;;
27670;SDS011;15077;49.704;9.908;2023-04-03T13:11:22;2.78;;;1.60;;
27670;SDS011;15077;49.704;9.908;2023-04-03T13:14:01;4.53;;;1.88;;
27670;SDS011;15077;49.704;9.908;2023-04-03T13:16:39;4.00;;;1.48;;
27670;SDS011;15077;49.704;9.908;2023-04-03T13:19:06;2.67;;;1.33;;
27670;SDS011;15077;49.704;9.908;2023-04-03T13:21:41;2.90;;;1.30;;
27670;SDS011;15077;49.704;9.908;2023-04-03T13:24:09;2.72;;;1.52;;
27670;SDS011;15077;49.704;9.908;2023-04-03T13:26:36;2.33;;;1.42;;
27670;SDS011;15077;49.704;9.908;2023-04-03T13:29:03;3.03;;;1.40;;
27670;SDS011;15077;49.704;9.908;2023-04-03T13:31:33;2.47;;;1.48;;
27670;SDS011;15077;49.704;9.908;2023-04-03T13:41:43;5.32;;;1.70;;
27670;SDS011;15077;49.704;9.908;2023-04-03T13:46:50;2.17;;;1.23;;
27670;SDS011;15077;49.704;9.908;2023-04-03T13:52:20;2.15;;;1.20;;
27670;SDS011;15077;49.704;9.908;2023-04-03T13:55:11;2.78;;;1.60;;
27670;SDS011;15077;49.704;9.908;2023-04-03T13:58:00;2.05;;;1.23;;
27670;SDS011;15077;49.704;9.908;2023-04-03T14:00:48;2.85;;;1.27;;
27670;SDS011;15077;49.704;9.908;2023-04-03T14:03:29;2.13;;;1.05;;
27670;SDS011;15077;49.704;9.908;2023-04-03T14:06:06;3.25;;;1.85;;
27670;SDS011;15077;49.704;9.908;2023-04-03T14:08:37;1.65;;;1.20;;
27670;SDS011;15077;49.704;9.908;2023-04-03T14:11:02;2.92;;;1.30;;
27670;SDS011;15077;49.704;9.908;2023-04-03T14:13:29;2.85;;;1.67;;
27670;SDS011;15077;49.704;9.908;2023-04-03T14:15:56;2.50;;;1.33;;
27670;SDS011;15077;49.704;9.908;2023-04-03T14:18:22;3.05;;;1.30;;
27670;SDS011;15077;49.704;9.908;2023-04-03T14:20:48;4.13;;;1.30;;
27670;SDS011;15077;49.704;9.908;2023-04-03T14:23:14;4.10;;;1.60;;
27670;SDS011;15077;49.704;9.908;2023-04-03T14:25:41;2.00;;;1.13;;
27670;SDS011;15077;49.704;9.908;2023-04-03T14:28:15;2.17;;;1.10;;
27670;SDS011;15077;49.704;9.908;2023-04-03T14:30:44;2.65;;;1.25;;
27670;SDS011;15077;49.704;9.908;2023-04-03T14:33:13;3.97;;;1.50;;
27670;SDS011;15077;49.704;9.908;2023-04-03T14:35:43;1.55;;;1.08;;
27670;SDS011;15077;49.704;9.908;2023-04-03T14:38:15;3.25;;;1.00;;
27670;SDS011;15077;49.704;9.908;2023-04-03T14:40:52;5.70;;;1.60;;
27670;SDS011;15077;49.704;9.908;2023-04-03T14:43:19;4.22;;;1.13;;
27670;SDS011;15077;49.704;9.908;2023-04-03T14:45:47;2.42;;;1.60;;
27670;SDS011;15077;49.704;9.908;2023-04-03T14:48:16;2.88;;;1.30;;
27670;SDS011;15077;49.704;9.908;2023-04-03T14:50:49;4.20;;;1.63;;
27670;SDS011;15077;49.704;9.908;2023-04-03T14:53:16;3.83;;;1.17;;
27670;SDS011;15077;49.704;9.908;2023-04-03T14:55:48;2.47;;;1.33;;
27670;SDS011;15077;49.704;9.908;2023-04-03T14:58:15;3.13;;;1.10;;
27670;SDS011;15077;49.704;9.908;2023-04-03T15:00:44;3.22;;;1.15;;
27670;SDS011;15077;49.704;9.908;2023-04-03T15:03:15;2.28;;;1.20;;
27670;SDS011;15077;49.704;9.908;2023-04-03T15:08:25;1.60;;;1.05;;
27670;SDS011;15077;49.704;9.908;2023-04-03T15:10:56;4.93;;;1.35;;
27670;SDS011;15077;49.704;9.908;2023-04-03T15:13:23;2.78;;;1.25;;
27670;SDS011;15077;49.704;9.908;2023-04-03T15:15:49;2.30;;;1.00;;
27670;SDS011;15077;49.704;9.908;2023-04-03T15:18:21;2.58;;;1.27;;
27670;SDS011;15077;49.704;9.908;2023-04-03T15:20:51;1.52;;;1.00;;
27670;SDS011;15077;49.704;9.908;2023-04-03T15:23:18;3.78;;;1.35;;
27670;SDS011;15077;49.704;9.908;2023-04-03T15:25:44;2.40;;;1.15;;
27670;SDS011;15077;49.704;9.908;2023-04-03T15:28:33;3.03;;;1.30;;
27670;SDS011;15077;49.704;9.908;2023-04-03T15:31:02;4.75;;;1.40;;
27670;SDS011;15077;49.704;9.908;2023-04-03T15:33:31;3.53;;;1.10;;
27670;SDS011;15077;49.704;9.908;2023-04-03T15:35:58;2.58;;;1.05;;
27670;SDS011;15077;49.704;9.908;2023-04-03T15:38:24;2.33;;;1.48;;
27670;SDS011;15077;49.704;9.908;2023-04-03T15:40:50;5.50;;;1.63;;
27670;SDS011;15077;49.704;9.908;2023-04-03T15:43:16;3.50;;;1.00;;
27670;SDS011;15077;49.704;9.908;2023-04-03T15:45:43;3.25;;;1.10;;
27670;SDS011;15077;49.704;9.908;2023-04-03T15:48:10;3.67;;;1.08;;
27670;SDS011;15077;49.704;9.908;2023-04-03T15:50:37;4.38;;;1.73;;
27670;SDS011;15077;49.704;9.908;2023-04-03T15:53:04;1.80;;;1.05;;
27670;SDS011;15077;49.704;9.908;2023-04-03T15:55:31;4.40;;;1.60;;
27670;SDS011;15077;49.704;9.908;2023-04-03T15:57:59;2.28;;;1.00;;
27670;SDS011;15077;49.704;9.908;2023-04-03T16:00:26;4.32;;;1.45;;
27670;SDS011;15077;49.704;9.908;2023-04-03T16:03:00;3.22;;;1.20;;
27670;SDS011;15077;49.704;9.908;2023-04-03T16:05:33;3.42;;;1.00;;
27670;SDS011;15077;49.704;9.908;2023-04-03T16:08:03;2.30;;;1.23;;
27670;SDS011;15077;49.704;9.908;2023-04-03T16:10:31;5.55;;;1.20;;
27670;SDS011;15077;49.704;9.908;2023-04-03T16:12:56;3.38;;;0.90;;
27670;SDS011;15077;49.704;9.908;2023-04-03T16:15:22;2.00;;;1.10;;
27670;SDS011;15077;49.704;9.908;2023-04-03T16:17:50;2.33;;;0.90;;
27670;SDS011;15077;49.704;9.908;2023-04-03T16:20:17;1.50;;;0.90;;
27670;SDS011;15077;49.704;9.908;2023-04-03T16:22:43;1.88;;;1.00;;
27670;SDS011;15077;49.704;9.908;2023-04-03T16:25:10;2.55;;;1.10;;
27670;SDS011;15077;49.704;9.908;2023-04-03T16:27:37;3.20;;;1.13;;
27670;SDS011;15077;49.704;9.908;2023-04-03T16:30:03;2.50;;;1.08;;
27670;SDS011;15077;49.704;9.908;2023-04-03T16:32:30;5.47;;;1.40;;
27670;SDS011;15077;49.704;9.908;2023-04-03T16:34:57;3.25;;;0.90;;
27670;SDS011;15077;49.704;9.908;2023-04-03T16:37:23;2.83;;;0.95;;
27670;SDS011;15077;49.704;9.908;2023-04-03T16:39:50;3.25;;;0.90;;
27670;SDS011;15077;49.704;9.908;2023-04-03T16:42:16;2.53;;;1.10;;
27670;SDS011;15077;49.704;9.908;2023-04-03T16:44:42;4.05;;;1.55;;
27670;SDS011;15077;49.704;9.908;2023-04-03T16:47:08;3.17;;;0.90;;
27670;SDS011;15077;49.704;9.908;2023-04-03T16:49:34;3.95;;;1.40;;
27670;SDS011;15077;49.704;9.908;2023-04-03T16:52:04;2.60;;;0.90;;
27670;SDS011;15077;49.704;9.908;2023-04-03T16:54:30;3.33;;;1.20;;
27670;SDS011;15077;49.704;9.908;2023-04-03T16:56:57;2.95;;;0.98;;
27670;SDS011;15077;49.704;9.908;2023-04-03T16:59:23;2.28;;;1.00;;